sensor_id;sensor_type;location;lat;lon;timestamp;pressure;altitude;pressure_sealevel;temperature;humidity
11519;BME280;5816;48.228;14.116;2023-07-09T05:34:33;98534.34;;;19.65;87.64
11519;BME280;5816;48.228;14.116;2023-07-09T05:39:34;98546.44;;;19.85;86.70
11519;BME280;5816;48.228;14.116;2023-07-09T05:44:36;98556.28;;;19.86;88.11
11519;BME280;5816;48.228;14.116;2023-07-09T05:49:38;98539.63;;;19.89;84.40
11519;BME280;5816;48.228;14.116;2023-07-09T05:54:40;98548.22;;;20.16;82.49
11519;BME280;5816;48.228;14.116;2023-07-09T05:59:42;98552.16;;;20.36;83.48
11519;BME280;5816;48.228;14.116;2023-07-09T06:04:44;98552.41;;;20.49;84.06
11519;BME280;5816;48.228;14.116;2023-07-09T06:09:47;98559.19;;;20.68;84.14
11519;BME280;5816;48.228;14.116;2023-07-09T06:14:49;98550.75;;;20.78;83.63
11519;BME280;5816;48.228;14.116;2023-07-09T06:19:51;98560.53;;;20.87;82.47
11519;BME280;5816;48.228;14.116;2023-07-09T06:24:53;98562.03;;;21.04;80.86
11519;BME280;5816;48.228;14.116;2023-07-09T06:29:55;98560.53;;;21.17;79.94
11519;BME280;5816;48.228;14.116;2023-07-09T06:34:57;98560.25;;;21.56;79.13
11519;BME280;5816;48.228;14.116;2023-07-09T06:39:58;98569.16;;;21.65;78.29
11519;BME280;5816;48.228;14.116;2023-07-09T06:45:00;98566.75;;;21.76;78.13
11519;BME280;5816;48.228;14.116;2023-07-09T06:50:02;98573.88;;;21.92;78.54
11519;BME280;5816;48.228;14.116;2023-07-09T06:55:04;98559.66;;;22.18;77.61
11519;BME280;5816;48.228;14.116;2023-07-09T07:00:07;98553.00;;;22.21;75.87
11519;BME280;5816;48.228;14.116;2023-07-09T07:05:09;98559.50;;;22.69;74.91
11519;BME280;5816;48.228;14.116;2023-07-09T07:10:11;98554.31;;;22.81;75.07
11519;BME280;5816;48.228;14.116;2023-07-09T07:15:15;98563.28;;;22.96;72.97
11519;BME280;5816;48.228;14.116;2023-07-09T07:20:18;98559.75;;;23.02;71.47
11519;BME280;5816;48.228;14.116;2023-07-09T07:25:20;98554.19;;;23.23;73.02
11519;BME280;5816;48.228;14.116;2023-07-09T07:30:21;98549.81;;;23.36;71.31
11519;BME280;5816;48.228;14.116;2023-07-09T07:35:26;98548.13;;;23.83;70.74
11519;BME280;5816;48.228;14.116;2023-07-09T07:40:28;98540.13;;;23.74;69.67
11519;BME280;5816;48.228;14.116;2023-07-09T07:45:30;98551.53;;;23.98;70.00
11519;BME280;5816;48.228;14.116;2023-07-09T07:50:31;98542.72;;;23.96;68.78
11519;BME280;5816;48.228;14.116;2023-07-09T07:55:34;98543.84;;;24.54;69.52
11519;BME280;5816;48.228;14.116;2023-07-09T08:00:37;98541.91;;;24.81;66.53
11519;BME280;5816;48.228;14.116;2023-07-09T08:05:41;98542.50;;;25.17;65.50
11519;BME280;5816;48.228;14.116;2023-07-09T08:10:43;98541.16;;;25.46;64.90
11519;BME280;5816;48.228;14.116;2023-07-09T08:15:46;98541.34;;;25.51;64.02
11519;BME280;5816;48.228;14.116;2023-07-09T08:20:49;98542.44;;;25.94;63.77
11519;BME280;5816;48.228;14.116;2023-07-09T08:25:54;98536.75;;;26.21;63.34
11519;BME280;5816;48.228;14.116;2023-07-09T08:30:56;98534.19;;;26.26;62.26
11519;BME280;5816;48.228;14.116;2023-07-09T08:35:58;98533.53;;;26.56;62.86
11519;BME280;5816;48.228;14.116;2023-07-09T08:47:11;98524.09;;;26.95;62.72
11519;BME280;5816;48.228;14.116;2023-07-09T08:52:36;98524.16;;;27.13;61.70
11519;BME280;5816;48.228;14.116;2023-07-09T08:57:41;98524.38;;;27.30;59.81
11519;BME280;5816;48.228;14.116;2023-07-09T09:02:49;98519.16;;;27.77;59.44
11519;BME280;5816;48.228;14.116;2023-07-09T09:07:59;98516.25;;;27.72;59.36
11519;BME280;5816;48.228;14.116;2023-07-09T09:13:12;98521.59;;;28.27;57.21
11519;BME280;5816;48.228;14.116;2023-07-09T09:18:20;98527.19;;;28.62;56.41
11519;BME280;5816;48.228;14.116;2023-07-09T09:23:25;98513.88;;;28.47;56.07
11519;BME280;5816;48.228;14.116;2023-07-09T09:28:35;98519.53;;;29.11;55.40
11519;BME280;5816;48.228;14.116;2023-07-09T09:33:42;98516.78;;;28.99;54.35
11519;BME280;5816;48.228;14.116;2023-07-09T09:38:44;98509.56;;;29.21;53.44
11519;BME280;5816;48.228;14.116;2023-07-09T09:43:48;98516.94;;;29.44;53.18
11519;BME280;5816;48.228;14.116;2023-07-09T09:48:54;98506.75;;;29.57;51.35
11519;BME280;5816;48.228;14.116;2023-07-09T09:54:00;98519.72;;;29.56;50.74
11519;BME280;5816;48.228;14.116;2023-07-09T09:59:04;98514.53;;;29.48;49.19
11519;BME280;5816;48.228;14.116;2023-07-09T10:04:06;98510.75;;;30.06;50.92
11519;BME280;5816;48.228;14.116;2023-07-09T10:14:33;98510.50;;;30.53;49.66
11519;BME280;5816;48.228;14.116;2023-07-09T10:20:17;98509.44;;;30.59;47.49
11519;BME280;5816;48.228;14.116;2023-07-09T10:25:31;98505.53;;;30.55;46.45
11519;BME280;5816;48.228;14.116;2023-07-09T10:36:07;98497.97;;;31.40;46.12
11519;BME280;5816;48.228;14.116;2023-07-09T10:41:11;98501.50;;;30.63;45.66
11519;BME280;5816;48.228;14.116;2023-07-09T10:46:34;98488.88;;;31.66;44.80
11519;BME280;5816;48.228;14.116;2023-07-09T10:51:41;98486.88;;;31.40;44.53
11519;BME280;5816;48.228;14.116;2023-07-09T10:56:48;98475.28;;;31.43;42.22
11519;BME280;5816;48.228;14.116;2023-07-09T11:02:11;98483.31;;;32.42;43.54
11519;BME280;5816;48.228;14.116;2023-07-09T11:07:42;98476.00;;;32.04;43.09
11519;BME280;5816;48.228;14.116;2023-07-09T11:13:01;98475.50;;;32.07;43.08
11519;BME280;5816;48.228;14.116;2023-07-09T11:18:07;98468.50;;;32.31;41.09
11519;BME280;5816;48.228;14.116;2023-07-09T11:23:21;98474.19;;;31.87;40.31
11519;BME280;5816;48.228;14.116;2023-07-09T11:28:36;98476.56;;;32.65;40.36
11519;BME280;5816;48.228;14.116;2023-07-09T11:33:48;98460.56;;;32.77;38.67
11519;BME280;5816;48.228;14.116;2023-07-09T11:38:50;98464.81;;;32.53;38.93
11519;BME280;5816;48.228;14.116;2023-07-09T11:43:52;98454.41;;;32.75;38.72
11519;BME280;5816;48.228;14.116;2023-07-09T11:48:55;98452.06;;;32.94;37.68
11519;BME280;5816;48.228;14.116;2023-07-09T11:54:00;98447.28;;;32.84;36.55
11519;BME280;5816;48.228;14.116;2023-07-09T11:59:02;98437.09;;;33.47;38.76
11519;BME280;5816;48.228;14.116;2023-07-09T12:04:04;98441.78;;;33.42;36.27
11519;BME280;5816;48.228;14.116;2023-07-09T12:09:12;98430.16;;;33.65;33.01
11519;BME280;5816;48.228;14.116;2023-07-09T12:14:20;98432.13;;;33.60;35.38
11519;BME280;5816;48.228;14.116;2023-07-09T12:19:24;98425.44;;;33.56;35.30
11519;BME280;5816;48.228;14.116;2023-07-09T12:24:28;98422.53;;;33.25;35.71
11519;BME280;5816;48.228;14.116;2023-07-09T12:29:35;98416.44;;;33.28;33.64
11519;BME280;5816;48.228;14.116;2023-07-09T12:34:37;98412.75;;;34.11;34.62
11519;BME280;5816;48.228;14.116;2023-07-09T12:39:39;98412.19;;;33.93;34.85
11519;BME280;5816;48.228;14.116;2023-07-09T12:44:41;98393.56;;;34.34;33.69
11519;BME280;5816;48.228;14.116;2023-07-09T12:49:44;98395.47;;;33.78;34.79
11519;BME280;5816;48.228;14.116;2023-07-09T12:54:56;98386.88;;;33.90;34.25
11519;BME280;5816;48.228;14.116;2023-07-09T12:59:58;98386.59;;;33.86;33.85
11519;BME280;5816;48.228;14.116;2023-07-09T13:05:04;98379.38;;;33.80;34.34
11519;BME280;5816;48.228;14.116;2023-07-09T13:10:16;98384.06;;;33.69;32.82
11519;BME280;5816;48.228;14.116;2023-07-09T13:15:31;98376.59;;;34.21;32.44
11519;BME280;5816;48.228;14.116;2023-07-09T13:20:37;98372.72;;;34.12;34.46
11519;BME280;5816;48.228;14.116;2023-07-09T13:25:40;98366.06;;;34.18;33.22
11519;BME280;5816;48.228;14.116;2023-07-09T13:30:51;98370.78;;;34.38;35.26
11519;BME280;5816;48.228;14.116;2023-07-09T13:35:53;98367.19;;;34.01;32.63
11519;BME280;5816;48.228;14.116;2023-07-09T13:40:57;98372.72;;;34.42;34.49
11519;BME280;5816;48.228;14.116;2023-07-09T13:46:02;98367.16;;;34.42;33.53
11519;BME280;5816;48.228;14.116;2023-07-09T13:51:22;98370.50;;;33.93;33.99
11519;BME280;5816;48.228;14.116;2023-07-09T13:56:24;98366.06;;;34.13;32.28
11519;BME280;5816;48.228;14.116;2023-07-09T14:01:26;98361.31;;;34.28;33.43
11519;BME280;5816;48.228;14.116;2023-07-09T14:06:28;98369.06;;;34.67;34.51
11519;BME280;5816;48.228;14.116;2023-07-09T14:11:30;98356.59;;;34.44;31.62
11519;BME280;5816;48.228;14.116;2023-07-09T14:16:31;98347.03;;;34.76;32.88
11519;BME280;5816;48.228;14.116;2023-07-09T14:21:33;98341.84;;;34.49;31.55
11519;BME280;5816;48.228;14.116;2023-07-09T14:26:36;98341.47;;;34.81;32.65
11519;BME280;5816;48.228;14.116;2023-07-09T14:31:37;98339.75;;;34.90;33.39
11519;BME280;5816;48.228;14.116;2023-07-09T14:36:39;98338.09;;;34.99;34.29
11519;BME280;5816;48.228;14.116;2023-07-09T14:41:41;98327.56;;;34.76;35.96
11519;BME280;5816;48.228;14.116;2023-07-09T14:46:44;98322.97;;;35.15;34.01
11519;BME280;5816;48.228;14.116;2023-07-09T14:51:47;98323.06;;;35.00;34.25
11519;BME280;5816;48.228;14.116;2023-07-09T14:56:50;98322.44;;;35.08;33.37
11519;BME280;5816;48.228;14.116;2023-07-09T15:01:53;98324.81;;;34.71;31.90
11519;BME280;5816;48.228;14.116;2023-07-09T15:06:55;98318.22;;;35.21;32.52
11519;BME280;5816;48.228;14.116;2023-07-09T15:11:59;98312.69;;;35.11;31.23
11519;BME280;5816;48.228;14.116;2023-07-09T15:17:01;98310.94;;;35.25;31.72
11519;BME280;5816;48.228;14.116;2023-07-09T15:22:03;98312.44;;;35.07;32.12
11519;BME280;5816;48.228;14.116;2023-07-09T15:27:05;98296.94;;;34.81;33.11
11519;BME280;5816;48.228;14.116;2023-07-09T15:32:07;98300.88;;;34.70;32.50
11519;BME280;5816;48.228;14.116;2023-07-09T15:37:12;98302.66;;;34.20;32.46
11519;BME280;5816;48.228;14.116;2023-07-09T15:42:15;98293.41;;;34.55;33.20
11519;BME280;5816;48.228;14.116;2023-07-09T15:47:19;98283.44;;;34.49;34.62
11519;BME280;5816;48.228;14.116;2023-07-09T15:52:22;98274.00;;;34.50;33.06
11519;BME280;5816;48.228;14.116;2023-07-09T15:57:24;98277.03;;;34.48;32.79
11519;BME280;5816;48.228;14.116;2023-07-09T16:02:43;98258.25;;;34.84;35.06
11519;BME280;5816;48.228;14.116;2023-07-09T16:07:46;98264.38;;;34.92;34.05
11519;BME280;5816;48.228;14.116;2023-07-09T16:12:48;98254.69;;;34.69;34.02
11519;BME280;5816;48.228;14.116;2023-07-09T16:17:52;98253.66;;;34.54;32.88
11519;BME280;5816;48.228;14.116;2023-07-09T16:22:56;98243.56;;;34.74;33.76
11519;BME280;5816;48.228;14.116;2023-07-09T16:27:59;98244.19;;;34.55;34.42
11519;BME280;5816;48.228;14.116;2023-07-09T16:33:03;98237.53;;;34.51;35.16
11519;BME280;5816;48.228;14.116;2023-07-09T16:38:04;98243.75;;;34.13;33.16
11519;BME280;5816;48.228;14.116;2023-07-09T16:43:15;98238.47;;;34.06;35.27
11519;BME280;5816;48.228;14.116;2023-07-09T16:48:23;98228.78;;;33.58;35.88
11519;BME280;5816;48.228;14.116;2023-07-09T16:53:25;98226.00;;;33.93;33.64
11519;BME280;5816;48.228;14.116;2023-07-09T16:58:33;98226.00;;;33.88;36.41
11519;BME280;5816;48.228;14.116;2023-07-09T17:03:35;98229.34;;;33.75;37.46
11519;BME280;5816;48.228;14.116;2023-07-09T17:08:37;98230.47;;;33.48;38.63
11519;BME280;5816;48.228;14.116;2023-07-09T17:13:39;98232.66;;;33.26;39.90
11519;BME280;5816;48.228;14.116;2023-07-09T17:18:41;98223.03;;;32.56;41.30
11519;BME280;5816;48.228;14.116;2023-07-09T17:23:43;98223.22;;;31.91;44.27
11519;BME280;5816;48.228;14.116;2023-07-09T17:28:45;98211.91;;;31.98;44.31
11519;BME280;5816;48.228;14.116;2023-07-09T17:33:47;98218.97;;;32.26;44.47
11519;BME280;5816;48.228;14.116;2023-07-09T17:38:49;98218.34;;;31.34;45.70
11519;BME280;5816;48.228;14.116;2023-07-09T17:43:52;98216.38;;;30.32;47.33
11519;BME280;5816;48.228;14.116;2023-07-09T17:48:54;98219.91;;;30.27;48.15
11519;BME280;5816;48.228;14.116;2023-07-09T17:53:55;98217.00;;;30.17;48.09
11519;BME280;5816;48.228;14.116;2023-07-09T17:58:57;98213.13;;;29.80;49.85
11519;BME280;5816;48.228;14.116;2023-07-09T18:03:59;98209.16;;;29.54;48.96
11519;BME280;5816;48.228;14.116;2023-07-09T18:09:01;98208.53;;;29.01;50.62
11519;BME280;5816;48.228;14.116;2023-07-09T18:14:04;98208.94;;;28.81;53.21
11519;BME280;5816;48.228;14.116;2023-07-09T18:19:23;98204.06;;;28.72;54.86
11519;BME280;5816;48.228;14.116;2023-07-09T18:24:27;98215.00;;;28.26;56.88
11519;BME280;5816;48.228;14.116;2023-07-09T18:29:31;98210.22;;;28.33;57.97
11519;BME280;5816;48.228;14.116;2023-07-09T18:34:34;98221.72;;;28.07;59.74
11519;BME280;5816;48.228;14.116;2023-07-09T18:39:37;98212.03;;;27.57;61.45
11519;BME280;5816;48.228;14.116;2023-07-09T18:44:39;98221.78;;;27.07;63.00
11519;BME280;5816;48.228;14.116;2023-07-09T18:49:42;98223.47;;;27.08;62.73
11519;BME280;5816;48.228;14.116;2023-07-09T18:54:46;98223.81;;;26.81;62.54
11519;BME280;5816;48.228;14.116;2023-07-09T18:59:48;98227.34;;;26.70;63.12
11519;BME280;5816;48.228;14.116;2023-07-09T19:04:51;98229.22;;;25.84;64.49
11519;BME280;5816;48.228;14.116;2023-07-09T19:09:55;98232.66;;;25.55;63.21
11519;BME280;5816;48.228;14.116;2023-07-09T19:15:01;98233.16;;;25.20;64.30
11519;BME280;5816;48.228;14.116;2023-07-09T19:20:15;98242.22;;;24.82;64.14
11519;BME280;5816;48.228;14.116;2023-07-09T19:25:21;98237.66;;;24.76;62.97
11519;BME280;5816;48.228;14.116;2023-07-09T19:30:23;98245.00;;;24.38;62.87
11519;BME280;5816;48.228;14.116;2023-07-09T19:35:27;98247.75;;;24.38;62.32
11519;BME280;5816;48.228;14.116;2023-07-09T19:40:29;98249.16;;;24.47;61.52
11519;BME280;5816;48.228;14.116;2023-07-09T19:45:38;98251.06;;;23.68;64.43
11519;BME280;5816;48.228;14.116;2023-07-09T19:50:43;98251.91;;;23.62;63.57
11519;BME280;5816;48.228;14.116;2023-07-09T19:55:48;98259.03;;;22.97;65.66
11519;BME280;5816;48.228;14.116;2023-07-09T20:00:50;98262.28;;;22.73;66.06
11519;BME280;5816;48.228;14.116;2023-07-09T20:05:53;98251.78;;;22.69;64.63
11519;BME280;5816;48.228;14.116;2023-07-09T20:11:00;98257.41;;;22.55;65.50
11519;BME280;5816;48.228;14.116;2023-07-09T20:16:02;98262.84;;;22.48;67.40
11519;BME280;5816;48.228;14.116;2023-07-09T20:21:15;98260.25;;;23.01;64.75
